createdAt,value
2022-07-25T00:01:50.345Z,15.27
2022-07-25T00:04:18.760Z,14.82
2022-07-25T00:06:46.714Z,15.40
2022-07-25T00:09:15.078Z,15.00
2022-07-25T00:11:42.381Z,15.00
2022-07-25T00:14:09.996Z,14.52
2022-07-25T00:16:37.504Z,14.10
2022-07-25T00:19:05.171Z,14.52
2022-07-25T00:21:32.782Z,13.73
2022-07-25T00:23:59.870Z,12.57
2022-07-25T00:26:27.176Z,11.90
2022-07-25T00:28:54.305Z,11.45
2022-07-25T00:31:21.387Z,11.48
2022-07-25T00:33:48.667Z,9.68
2022-07-25T00:36:15.660Z,9.18
2022-07-25T00:38:42.622Z,9.57
2022-07-25T00:41:11.134Z,9.23
2022-07-25T00:43:38.291Z,9.60
2022-07-25T00:46:05.440Z,9.30
2022-07-25T00:48:32.851Z,9.27
2022-07-25T00:51:00.398Z,5.85
2022-07-25T00:53:27.354Z,7.72
2022-07-25T00:55:56.678Z,7.43
2022-07-25T00:58:23.752Z,7.75
2022-07-25T01:00:50.668Z,8.13
2022-07-25T01:03:18.339Z,7.38
2022-07-25T01:05:48.017Z,7.03
2022-07-25T01:08:20.504Z,7.07
2022-07-25T01:10:48.581Z,7.65
2022-07-25T01:13:15.976Z,6.93
2022-07-25T01:15:44.084Z,5.88
2022-07-25T01:18:11.176Z,6.38
2022-07-25T01:20:38.185Z,6.70
2022-07-25T01:23:05.493Z,6.90
2022-07-25T01:25:32.474Z,7.05
2022-07-25T01:27:59.452Z,6.30
2022-07-25T01:30:26.946Z,6.00
2022-07-25T01:32:54.262Z,6.50
2022-07-25T01:35:21.404Z,6.60
2022-07-25T01:37:48.775Z,5.18
2022-07-25T01:40:16.149Z,5.97
2022-07-25T01:42:43.733Z,5.35
2022-07-25T01:45:12.169Z,6.10
2022-07-25T01:47:39.492Z,5.07
2022-07-25T01:50:07.013Z,5.00
2022-07-25T01:52:34.435Z,4.82
2022-07-25T01:55:01.400Z,5.30
2022-07-25T01:57:31.275Z,5.60
2022-07-25T01:59:59.258Z,5.90
2022-07-25T02:02:26.588Z,5.03
2022-07-25T02:04:53.673Z,5.75
2022-07-25T02:07:21.102Z,5.13
2022-07-25T02:09:49.339Z,5.80
2022-07-25T02:12:18.143Z,5.43
2022-07-25T02:14:45.534Z,4.78
2022-07-25T02:17:12.550Z,4.80
2022-07-25T02:19:39.483Z,4.75
2022-07-25T02:22:06.958Z,4.30
2022-07-25T02:24:33.933Z,4.50
2022-07-25T02:27:01.040Z,4.95
2022-07-25T02:29:28.271Z,4.28
2022-07-25T02:31:55.222Z,5.25
2022-07-25T02:34:22.266Z,3.75
2022-07-25T02:36:49.733Z,4.22
2022-07-25T02:39:16.819Z,4.28
2022-07-25T02:41:44.726Z,4.50
2022-07-25T02:44:12.465Z,4.80
2022-07-25T02:46:39.518Z,4.70
2022-07-25T02:49:06.639Z,6.40
2022-07-25T02:51:33.908Z,8.70
2022-07-25T02:54:01.048Z,10.13
2022-07-25T02:56:30.264Z,12.63
2022-07-25T02:58:59.470Z,12.77
2022-07-25T03:01:27.112Z,11.93
2022-07-25T03:03:54.183Z,12.73
2022-07-25T03:06:21.661Z,13.50
2022-07-25T03:08:48.679Z,13.07
2022-07-25T03:11:16.911Z,11.35
2022-07-25T03:13:44.159Z,10.52
2022-07-25T03:16:12.333Z,10.38
2022-07-25T03:18:39.462Z,11.10
2022-07-25T03:21:07.182Z,8.80
2022-07-25T03:23:34.391Z,7.60
2022-07-25T03:26:01.287Z,7.90
2022-07-25T03:28:28.665Z,6.00
2022-07-25T03:30:55.717Z,5.82
2022-07-25T03:33:22.768Z,5.07
2022-07-25T03:35:49.992Z,5.30
2022-07-25T03:38:16.944Z,5.38
2022-07-25T03:40:44.022Z,5.00
2022-07-25T03:43:11.346Z,4.30
2022-07-25T03:45:38.352Z,4.32
2022-07-25T03:48:05.693Z,4.13
2022-07-25T03:50:34.134Z,4.10
2022-07-25T03:53:01.131Z,4.03
2022-07-25T03:55:28.458Z,3.80
2022-07-25T03:57:55.722Z,3.47
2022-07-25T04:00:22.979Z,3.38
2022-07-25T04:02:50.170Z,3.47
2022-07-25T04:05:17.511Z,3.50
2022-07-25T04:07:44.659Z,3.47
2022-07-25T04:10:14.398Z,3.58
2022-07-25T04:12:45.700Z,3.90
2022-07-25T04:15:12.825Z,3.95
2022-07-25T04:17:39.958Z,4.93
2022-07-25T04:20:08.626Z,4.97
2022-07-25T04:22:35.839Z,6.10
2022-07-25T04:25:02.913Z,6.43
2022-07-25T04:27:30.431Z,7.07
2022-07-25T04:30:01.226Z,7.28
2022-07-25T04:32:28.911Z,6.95
2022-07-25T04:34:55.995Z,6.30
2022-07-25T04:37:23.580Z,6.43
2022-07-25T04:39:50.479Z,6.85
2022-07-25T04:42:17.844Z,6.25
2022-07-25T04:44:45.059Z,5.57
2022-07-25T04:47:12.023Z,6.28
2022-07-25T04:49:39.021Z,5.75
2022-07-25T04:52:06.379Z,5.72
2022-07-25T04:54:33.314Z,5.65
2022-07-25T04:57:01.492Z,5.22
2022-07-25T04:59:28.733Z,5.03
2022-07-25T05:01:55.729Z,3.90
2022-07-25T05:04:22.759Z,4.55
2022-07-25T05:06:50.093Z,3.63
2022-07-25T05:09:17.023Z,3.92
2022-07-25T05:11:48.655Z,2.92
2022-07-25T05:14:17.903Z,2.83
2022-07-25T05:16:47.878Z,2.25
2022-07-25T05:19:14.878Z,2.70
2022-07-25T05:21:42.140Z,3.03
2022-07-25T05:24:10.751Z,2.72
2022-07-25T05:26:37.719Z,2.80
2022-07-25T05:29:05.086Z,2.78
2022-07-25T05:31:32.078Z,2.60
2022-07-25T05:33:59.053Z,2.80
2022-07-25T05:36:26.384Z,2.85
2022-07-25T05:38:54.224Z,2.65
2022-07-25T05:41:21.491Z,2.70
2022-07-25T05:43:48.973Z,2.58
2022-07-25T05:46:16.323Z,2.50
2022-07-25T05:48:44.422Z,2.17
2022-07-25T05:51:12.627Z,2.33
2022-07-25T05:53:39.850Z,2.60
2022-07-25T05:56:09.013Z,3.05
2022-07-25T05:58:37.396Z,2.92
2022-07-25T06:01:04.638Z,3.03
2022-07-25T06:03:31.727Z,3.13
2022-07-25T06:05:58.976Z,3.20
2022-07-25T06:08:28.800Z,3.22
2022-07-25T06:10:57.781Z,3.08
2022-07-25T06:13:25.855Z,4.00
2022-07-25T06:15:55.092Z,3.25
2022-07-25T06:18:22.605Z,3.33
2022-07-25T06:20:49.950Z,2.70
2022-07-25T06:23:17.468Z,3.35
2022-07-25T06:25:50.034Z,3.45
2022-07-25T06:28:18.180Z,3.40
2022-07-25T06:30:46.151Z,3.35
2022-07-25T06:33:13.857Z,3.60
2022-07-25T06:35:41.102Z,3.90
2022-07-25T06:38:07.996Z,3.30
2022-07-25T06:40:36.391Z,3.58
2022-07-25T06:43:03.796Z,4.00
2022-07-25T06:45:30.915Z,3.40
2022-07-25T06:47:57.862Z,3.80
2022-07-25T06:50:25.446Z,3.67
2022-07-25T06:52:54.512Z,3.35
2022-07-25T06:55:21.837Z,3.60
2022-07-25T06:57:49.162Z,3.50
2022-07-25T07:00:16.311Z,4.03
2022-07-25T07:02:52.104Z,4.00
2022-07-25T07:05:19.568Z,3.80
2022-07-25T07:07:47.949Z,4.18
2022-07-25T07:10:15.642Z,4.15
2022-07-25T07:12:42.992Z,4.35
2022-07-25T07:15:10.301Z,4.43
2022-07-25T07:17:37.335Z,4.07
2022-07-25T07:20:06.512Z,3.85
2022-07-25T07:22:42.953Z,4.15
2022-07-25T07:25:10.530Z,4.13
2022-07-25T07:27:38.124Z,4.70
2022-07-25T07:30:05.590Z,4.25
2022-07-25T07:32:34.067Z,4.45
2022-07-25T07:35:01.130Z,4.63
2022-07-25T07:37:35.784Z,4.78
2022-07-25T07:40:05.821Z,4.53
2022-07-25T07:42:44.313Z,4.55
2022-07-25T07:45:24.621Z,4.60
2022-07-25T07:47:53.480Z,5.15
2022-07-25T07:50:27.497Z,4.45
2022-07-25T07:52:56.047Z,4.45
2022-07-25T07:55:42.230Z,4.18
2022-07-25T07:58:10.142Z,5.35
2022-07-25T08:00:39.702Z,5.45
2022-07-25T08:03:10.041Z,5.90
2022-07-25T08:05:39.141Z,5.40
2022-07-25T08:08:08.868Z,4.82
2022-07-25T08:10:38.664Z,5.28
2022-07-25T08:13:22.679Z,5.35
2022-07-25T08:15:52.567Z,5.15
2022-07-25T08:18:20.325Z,5.00
2022-07-25T08:20:48.619Z,5.25
2022-07-25T08:23:15.735Z,5.05
2022-07-25T08:25:45.178Z,5.15
2022-07-25T08:28:12.645Z,5.07
2022-07-25T08:30:41.179Z,5.18
2022-07-25T08:33:13.285Z,4.70
2022-07-25T08:38:11.657Z,4.72
2022-07-25T08:40:39.009Z,4.72
2022-07-25T08:43:13.866Z,5.35
2022-07-25T08:45:46.028Z,5.05
2022-07-25T08:50:40.468Z,5.43
2022-07-25T08:53:32.126Z,5.63
2022-07-25T08:55:55.057Z,5.20
2022-07-25T08:58:22.438Z,4.90
2022-07-25T09:00:49.623Z,4.35
2022-07-25T09:03:16.728Z,4.25
2022-07-25T09:05:45.333Z,4.10
2022-07-25T09:08:14.697Z,4.47
2022-07-25T09:10:50.244Z,5.18
2022-07-25T09:13:21.891Z,4.30
2022-07-25T09:15:53.983Z,4.30
2022-07-25T09:18:29.740Z,4.22
2022-07-25T09:21:00.872Z,4.25
2022-07-25T09:23:32.099Z,4.30
2022-07-25T09:26:17.735Z,3.75
2022-07-25T09:28:46.535Z,4.78
2022-07-25T09:31:14.545Z,4.53
2022-07-25T09:33:55.378Z,4.47
2022-07-25T09:36:23.032Z,4.18
2022-07-25T09:39:01.434Z,4.70
2022-07-25T09:41:37.038Z,3.85
2022-07-25T09:44:05.423Z,4.28
2022-07-25T09:46:35.148Z,4.30
2022-07-25T09:49:02.274Z,5.07
2022-07-25T09:51:30.695Z,4.32
2022-07-25T09:53:57.929Z,3.65
2022-07-25T09:56:24.883Z,3.88
2022-07-25T09:58:52.934Z,3.97
2022-07-25T10:01:29.076Z,3.85
2022-07-25T10:04:21.007Z,3.72
2022-07-25T10:07:04.243Z,4.65
2022-07-25T10:09:32.376Z,4.00
2022-07-25T10:12:06.398Z,4.05
2022-07-25T10:14:34.426Z,3.80
2022-07-25T10:17:02.148Z,4.35
2022-07-25T10:19:50.798Z,4.30
2022-07-25T10:22:34.239Z,3.90
2022-07-25T10:25:19.735Z,4.53
2022-07-25T10:27:49.141Z,4.28
2022-07-25T10:30:26.580Z,4.72
2022-07-25T10:33:00.692Z,4.57
2022-07-25T10:35:28.626Z,4.88
2022-07-25T10:37:57.777Z,4.50
2022-07-25T10:40:35.467Z,4.57
2022-07-25T10:43:12.672Z,4.95
2022-07-25T10:45:52.040Z,5.15
2022-07-25T10:48:25.452Z,4.95
2022-07-25T10:50:58.344Z,5.65
2022-07-25T10:53:38.449Z,4.70
2022-07-25T10:56:15.884Z,4.78
2022-07-25T10:58:44.184Z,4.93
2022-07-25T11:01:11.659Z,4.90
2022-07-25T11:03:39.363Z,4.68
2022-07-25T11:06:06.818Z,4.75
2022-07-25T11:08:34.564Z,4.70
2022-07-25T11:11:02.214Z,4.90
2022-07-25T11:13:36.233Z,4.80
2022-07-25T11:16:03.210Z,5.15
2022-07-25T11:18:41.114Z,5.13
2022-07-25T11:21:09.449Z,5.13
2022-07-25T11:23:37.118Z,4.88
2022-07-25T11:26:12.135Z,4.68
2022-07-25T11:28:44.249Z,5.07
2022-07-25T11:31:12.503Z,4.85
2022-07-25T11:33:40.817Z,4.53
2022-07-25T11:36:10.776Z,5.32
2022-07-25T11:38:39.038Z,4.80
2022-07-25T11:41:06.627Z,4.65
2022-07-25T11:43:33.894Z,5.20
2022-07-25T11:46:08.355Z,4.90
2022-07-25T11:48:39.195Z,4.47
2022-07-25T11:51:18.650Z,5.00
2022-07-25T11:53:49.758Z,4.63
2022-07-25T11:56:41.303Z,5.70
2022-07-25T11:59:08.140Z,5.60
2022-07-25T12:01:40.760Z,5.90
2022-07-25T12:04:17.292Z,6.00
2022-07-25T12:06:45.757Z,5.35
2022-07-25T12:09:19.162Z,6.22
2022-07-25T12:11:48.474Z,5.75
2022-07-25T12:14:16.338Z,5.80
2022-07-25T12:16:43.599Z,5.10
2022-07-25T12:19:19.425Z,4.88
2022-07-25T12:21:46.846Z,5.53
2022-07-25T12:24:14.454Z,6.13
2022-07-25T12:26:41.648Z,5.13
2022-07-25T12:29:09.397Z,5.22
2022-07-25T12:31:36.645Z,6.47
2022-07-25T12:34:03.714Z,5.25
2022-07-25T12:36:31.120Z,7.97
2022-07-25T12:38:58.535Z,8.68
2022-07-25T12:41:25.518Z,5.50
2022-07-25T12:43:52.726Z,5.03
2022-07-25T12:46:19.909Z,5.50
2022-07-25T12:48:47.309Z,5.65
2022-07-25T12:51:14.637Z,5.32
2022-07-25T12:53:42.603Z,5.22
2022-07-25T12:56:09.870Z,6.20
2022-07-25T12:58:37.694Z,5.97
2022-07-25T13:01:08.435Z,5.60
2022-07-25T13:03:35.460Z,6.53
2022-07-25T13:06:02.949Z,5.13
2022-07-25T13:08:29.952Z,5.57
2022-07-25T13:10:58.208Z,5.40
2022-07-25T13:13:25.573Z,5.60
2022-07-25T13:15:54.329Z,5.47
2022-07-25T13:18:21.427Z,5.88
2022-07-25T13:20:48.681Z,5.75
2022-07-25T13:23:20.513Z,5.00
2022-07-25T13:25:48.103Z,5.22
2022-07-25T13:28:15.086Z,6.60
2022-07-25T13:30:42.748Z,5.45
2022-07-25T13:33:12.695Z,6.90
2022-07-25T13:35:39.993Z,6.82
2022-07-25T13:38:11.674Z,6.30
2022-07-25T13:40:43.290Z,6.82
2022-07-25T13:43:11.241Z,6.82
2022-07-25T13:45:38.728Z,6.40
2022-07-25T13:48:28.460Z,6.70
2022-07-25T13:50:53.932Z,5.90
2022-07-25T13:53:22.294Z,6.43
2022-07-25T13:55:51.738Z,6.53
2022-07-25T13:58:18.683Z,6.95
2022-07-25T14:00:46.118Z,6.38
2022-07-25T14:03:13.101Z,6.07
2022-07-25T14:05:40.419Z,6.20
2022-07-25T14:08:08.398Z,6.25
2022-07-25T14:10:35.911Z,5.90
2022-07-25T14:13:03.066Z,5.90
2022-07-25T14:15:31.421Z,6.03
2022-07-25T14:18:01.706Z,6.03
2022-07-25T14:20:29.021Z,6.35
2022-07-25T14:22:56.311Z,5.80
2022-07-25T14:25:23.270Z,6.15
2022-07-25T14:27:50.332Z,6.68
2022-07-25T14:30:17.756Z,6.30
2022-07-25T14:32:45.064Z,5.97
2022-07-25T14:35:12.236Z,5.90
2022-07-25T14:37:39.727Z,5.50
2022-07-25T14:40:07.564Z,5.82
2022-07-25T14:42:34.474Z,6.40
2022-07-25T14:45:02.093Z,6.15
2022-07-25T14:47:30.529Z,6.40
2022-07-25T14:49:57.863Z,6.32
2022-07-25T14:52:25.197Z,5.40
2022-07-25T14:54:52.082Z,6.07
2022-07-25T14:57:19.105Z,6.25
2022-07-25T14:59:46.554Z,5.47
2022-07-25T15:02:13.561Z,5.80
2022-07-25T15:04:40.672Z,5.90
2022-07-25T15:07:07.988Z,6.13
2022-07-25T15:09:34.970Z,6.00
2022-07-25T15:12:01.965Z,6.10
2022-07-25T15:14:30.553Z,5.78
2022-07-25T15:16:57.571Z,5.60
2022-07-25T15:19:25.898Z,5.82
2022-07-25T15:21:53.781Z,6.00
2022-07-25T15:24:23.517Z,5.30
2022-07-25T15:29:20.834Z,6.50
2022-07-25T15:31:49.026Z,5.65
2022-07-25T15:34:16.456Z,5.90
2022-07-25T15:36:43.440Z,5.70
2022-07-25T15:39:10.863Z,5.40
2022-07-25T15:41:38.502Z,5.60
2022-07-25T15:44:05.628Z,6.03
2022-07-25T15:46:33.020Z,5.70
2022-07-25T15:49:00.781Z,5.47
2022-07-25T15:51:27.870Z,5.93
2022-07-25T15:53:54.884Z,5.55
2022-07-25T15:56:23.280Z,5.53
2022-07-25T15:58:50.383Z,5.68
2022-07-25T16:01:17.436Z,5.68
2022-07-25T16:03:46.960Z,6.10
2022-07-25T16:06:18.844Z,5.20
2022-07-25T16:08:47.614Z,5.47
2022-07-25T16:11:48.263Z,5.70
2022-07-25T16:14:18.079Z,5.43
2022-07-25T16:16:45.163Z,5.75
2022-07-25T16:19:12.288Z,5.65
2022-07-25T16:21:40.088Z,5.55
2022-07-25T16:24:11.481Z,5.38
2022-07-25T16:26:41.368Z,5.55
2022-07-25T16:29:08.974Z,5.78
2022-07-25T16:31:36.151Z,7.18
2022-07-25T16:34:03.476Z,5.57
2022-07-25T16:36:30.689Z,5.72
2022-07-25T16:38:57.989Z,5.68
2022-07-25T16:41:25.287Z,5.25
2022-07-25T16:43:52.307Z,5.22
2022-07-25T16:46:19.847Z,5.15
2022-07-25T16:48:47.476Z,5.95
2022-07-25T16:51:14.853Z,5.28
2022-07-25T16:53:41.862Z,5.57
2022-07-25T16:56:09.238Z,5.75
2022-07-25T16:58:36.337Z,5.50
2022-07-25T17:01:03.472Z,5.45
2022-07-25T17:03:30.797Z,5.18
2022-07-25T17:05:58.036Z,5.60
2022-07-25T17:08:26.426Z,5.68
2022-07-25T17:10:55.490Z,6.05
2022-07-25T17:13:22.629Z,5.63
2022-07-25T17:15:49.746Z,5.57
2022-07-25T17:18:17.692Z,5.40
2022-07-25T17:20:44.636Z,4.97
2022-07-25T17:23:11.848Z,5.25
2022-07-25T17:25:41.205Z,4.90
2022-07-25T17:28:09.060Z,5.57
2022-07-25T17:30:36.079Z,5.78
2022-07-25T17:33:04.004Z,5.43
2022-07-25T17:35:31.759Z,5.75
2022-07-25T17:37:58.805Z,5.50
2022-07-25T17:40:26.342Z,5.20
2022-07-25T17:42:53.337Z,5.65
2022-07-25T17:45:20.334Z,6.00
2022-07-25T17:47:47.962Z,5.47
2022-07-25T17:50:16.978Z,5.35
2022-07-25T17:52:45.165Z,5.75
2022-07-25T17:55:13.647Z,5.47
2022-07-25T17:57:43.157Z,5.20
2022-07-25T18:00:12.042Z,6.13
2022-07-25T18:02:42.775Z,4.55
2022-07-25T18:05:10.046Z,5.32
2022-07-25T18:07:39.272Z,5.03
2022-07-25T18:10:07.468Z,5.72
2022-07-25T18:12:34.562Z,5.38
2022-07-25T18:15:02.631Z,5.43
2022-07-25T18:17:30.604Z,5.20
2022-07-25T18:19:57.771Z,5.28
2022-07-25T18:22:24.790Z,5.20
2022-07-25T18:24:52.073Z,6.00
2022-07-25T18:27:19.248Z,5.47
2022-07-25T18:29:47.057Z,5.32
2022-07-25T18:32:14.669Z,5.32
2022-07-25T18:34:41.605Z,5.65
2022-07-25T18:37:08.570Z,5.13
2022-07-25T18:39:35.965Z,5.40
2022-07-25T18:42:03.083Z,5.63
2022-07-25T18:44:30.337Z,5.32
2022-07-25T18:46:58.453Z,5.18
2022-07-25T18:49:27.179Z,5.95
2022-07-25T18:51:54.355Z,5.50
2022-07-25T18:54:21.752Z,5.50
2022-07-25T18:56:49.096Z,5.35
2022-07-25T18:59:16.406Z,5.47
2022-07-25T19:01:44.495Z,5.60
2022-07-25T19:04:12.400Z,5.30
2022-07-25T19:06:40.428Z,5.85
2022-07-25T19:09:10.030Z,6.10
2022-07-25T19:11:42.212Z,5.82
2022-07-25T19:14:14.174Z,5.78
2022-07-25T19:16:41.512Z,5.70
2022-07-25T19:19:09.955Z,5.70
2022-07-25T19:21:38.346Z,5.28
2022-07-25T19:24:06.223Z,5.57
2022-07-25T19:26:33.914Z,5.43
2022-07-25T19:29:00.958Z,5.97
2022-07-25T19:31:29.420Z,6.05
2022-07-25T19:33:59.688Z,5.50
2022-07-25T19:36:26.661Z,5.88
2022-07-25T19:38:53.680Z,5.65
2022-07-25T19:41:20.992Z,5.45
2022-07-25T19:43:48.011Z,6.45
2022-07-25T19:46:15.219Z,6.22
2022-07-25T19:48:44.218Z,5.88
2022-07-25T19:51:12.298Z,5.88
2022-07-25T19:53:39.324Z,6.10
2022-07-25T19:56:09.303Z,5.93
2022-07-25T19:58:41.135Z,6.15
2022-07-25T20:01:11.673Z,5.88
2022-07-25T20:03:39.051Z,6.32
2022-07-25T20:06:09.769Z,5.93
2022-07-25T20:08:39.850Z,5.75
2022-07-25T20:11:07.985Z,6.07
2022-07-25T20:13:36.925Z,5.95
2022-07-25T20:16:04.988Z,6.03
2022-07-25T20:18:35.125Z,6.22
2022-07-25T20:21:04.793Z,6.85
2022-07-25T20:23:32.378Z,5.78
2022-07-25T20:26:01.239Z,5.78
2022-07-25T20:28:28.924Z,5.90
2022-07-25T20:30:57.425Z,5.78
2022-07-25T20:33:27.288Z,6.28
2022-07-25T20:35:55.764Z,6.60
2022-07-25T20:38:28.745Z,6.05
2022-07-25T20:40:59.016Z,6.28
2022-07-25T20:43:27.276Z,5.97
2022-07-25T20:45:57.998Z,6.20
2022-07-25T20:48:25.117Z,5.75
2022-07-25T20:50:52.850Z,6.10
2022-07-25T20:53:19.885Z,6.30
2022-07-25T20:55:48.283Z,6.28
2022-07-25T20:58:15.939Z,6.75
2022-07-25T21:00:43.122Z,6.32
2022-07-25T21:03:11.737Z,6.75
2022-07-25T21:05:39.672Z,6.00
2022-07-25T21:08:07.451Z,6.72
2022-07-25T21:10:34.756Z,6.40
2022-07-25T21:13:02.190Z,6.25
2022-07-25T21:15:30.926Z,7.20
2022-07-25T21:17:58.182Z,6.72
2022-07-25T21:20:25.463Z,6.60
2022-07-25T21:22:55.563Z,5.85
2022-07-25T21:25:22.765Z,5.90
2022-07-25T21:27:50.223Z,6.95
2022-07-25T21:30:17.271Z,6.18
2022-07-25T21:32:45.051Z,5.93
2022-07-25T21:35:13.051Z,5.88
2022-07-25T21:37:41.999Z,5.80
2022-07-25T21:40:10.587Z,6.55
2022-07-25T21:42:38.456Z,6.10
2022-07-25T21:45:07.262Z,6.28
2022-07-25T21:47:37.451Z,6.53
2022-07-25T21:50:24.811Z,6.15
2022-07-25T21:52:52.634Z,6.35
2022-07-25T21:55:21.776Z,6.82
2022-07-25T21:57:51.288Z,6.28
2022-07-25T22:00:19.425Z,6.43
2022-07-25T22:03:02.030Z,6.30
2022-07-25T22:05:29.042Z,6.57
2022-07-25T22:07:56.293Z,6.57
2022-07-25T22:10:23.332Z,6.88
2022-07-25T22:12:50.409Z,6.40
2022-07-25T22:15:17.830Z,6.47
2022-07-25T22:17:49.623Z,6.50
2022-07-25T22:22:48.684Z,6.80
2022-07-25T22:25:16.805Z,6.40
2022-07-25T22:27:44.733Z,6.10
2022-07-25T22:30:18.185Z,6.95
2022-07-25T22:32:48.888Z,6.50
2022-07-25T22:35:16.265Z,7.13
2022-07-25T22:37:44.218Z,6.90
2022-07-25T22:40:12.093Z,6.70
2022-07-25T22:42:39.112Z,6.43
2022-07-25T22:45:06.807Z,6.82
2022-07-25T22:47:35.506Z,6.63
2022-07-25T22:50:05.469Z,6.85
2022-07-25T22:52:32.483Z,7.10
2022-07-25T22:54:59.798Z,6.65
2022-07-25T22:57:27.404Z,6.80
2022-07-25T22:59:54.387Z,6.95
2022-07-25T23:02:21.708Z,7.40
2022-07-25T23:04:48.743Z,7.18
2022-07-25T23:07:15.697Z,6.80
2022-07-25T23:09:43.683Z,7.35
2022-07-25T23:12:11.671Z,6.65
2022-07-25T23:14:38.733Z,7.40
2022-07-25T23:17:18.061Z,7.30
2022-07-25T23:19:49.288Z,8.00
2022-07-25T23:22:20.744Z,8.45
2022-07-25T23:24:48.452Z,8.57
2022-07-25T23:27:15.754Z,8.15
2022-07-25T23:29:43.180Z,9.23
2022-07-25T23:32:10.213Z,9.52
2022-07-25T23:34:37.477Z,8.93
2022-07-25T23:37:05.144Z,9.35
2022-07-25T23:39:33.784Z,8.10
2022-07-25T23:42:01.565Z,7.78
2022-07-25T23:44:29.043Z,7.70
2022-07-25T23:46:57.005Z,8.25
2022-07-25T23:49:24.517Z,7.63
2022-07-25T23:51:52.174Z,8.50
2022-07-25T23:54:19.706Z,8.43
2022-07-25T23:56:47.057Z,9.43
2022-07-25T23:59:17.966Z,13.68
